createdAt,value
2022-11-23T00:02:10.031Z,-0.67
2022-11-23T00:07:57.272Z,-0.73
2022-11-23T00:14:10.095Z,-0.53
2022-11-23T00:37:11.652Z,-0.60
2022-11-23T00:42:37.980Z,-0.61
2022-11-23T00:48:00.632Z,-0.76
2022-11-23T00:53:24.114Z,-0.57
2022-11-23T00:58:57.052Z,-0.48
2022-11-23T01:04:19.022Z,-0.65
2022-11-23T01:09:40.741Z,-0.47
2022-11-23T01:15:03.101Z,-0.42
2022-11-23T01:20:25.133Z,-0.44
2022-11-23T01:25:47.654Z,-0.48
2022-11-23T01:31:22.704Z,-0.42
2022-11-23T01:36:45.264Z,-0.48
2022-11-23T03:04:08.954Z,-1.01
2022-11-23T03:09:33.659Z,-1.10
2022-11-23T03:14:57.792Z,-1.04
2022-11-23T03:20:21.693Z,-1.16
2022-11-23T03:25:55.072Z,-1.06
2022-11-23T03:31:17.762Z,-1.15
2022-11-23T03:36:40.471Z,-1.19
2022-11-23T03:42:05.492Z,-1.15
2022-11-23T03:47:29.553Z,-1.17
2022-11-23T03:52:51.752Z,-1.09
2022-11-23T03:58:14.160Z,-1.44
2022-11-23T04:03:36.673Z,-1.26
2022-11-23T04:09:10.020Z,-1.32
2022-11-23T04:14:51.904Z,-1.42
2022-11-23T04:20:14.251Z,-1.46
2022-11-23T04:25:36.407Z,-1.48
2022-11-23T04:30:59.333Z,-1.47
2022-11-23T04:36:29.001Z,-1.46
2022-11-23T04:41:51.712Z,-1.57
2022-11-23T04:47:21.311Z,-1.66
2022-11-23T04:52:43.820Z,-1.56
2022-11-23T04:58:14.237Z,-1.67
2022-11-23T05:03:37.263Z,-1.83
2022-11-23T05:09:03.202Z,-1.79
2022-11-23T05:14:41.643Z,-1.71
2022-11-23T05:20:10.319Z,-1.98
2022-11-23T05:25:40.737Z,-1.83
2022-11-23T05:31:06.781Z,-1.97
2022-11-23T05:36:29.320Z,-2.05
2022-11-23T05:41:59.175Z,-2.16
2022-11-23T05:47:38.911Z,-2.13
2022-11-23T05:53:12.081Z,-2.04
2022-11-23T05:58:43.354Z,-2.19
2022-11-23T06:04:07.666Z,-2.22
2022-11-23T06:09:38.700Z,-2.29
2022-11-23T06:15:11.061Z,-2.22
2022-11-23T06:20:40.256Z,-2.24
2022-11-23T06:26:09.924Z,-2.23
2022-11-23T06:31:46.480Z,-2.22
2022-11-23T06:37:09.292Z,-2.17
2022-11-23T06:42:41.053Z,-2.06
2022-11-23T06:48:11.821Z,-2.25
2022-11-23T06:53:39.132Z,-2.22
2022-11-23T06:59:02.949Z,-2.15
2022-11-23T07:04:25.772Z,-2.27
2022-11-23T07:09:48.872Z,-2.26
2022-11-23T07:15:22.034Z,-2.22
2022-11-23T07:20:46.341Z,-2.28
2022-11-23T07:26:10.270Z,-2.36
2022-11-23T07:31:33.582Z,-2.57
2022-11-23T07:36:59.250Z,-2.41
2022-11-23T07:42:34.459Z,-2.37
2022-11-23T07:48:06.181Z,-2.40
2022-11-23T07:53:30.195Z,-2.49
2022-11-23T07:58:58.723Z,-2.46
2022-11-23T08:04:26.651Z,-2.59
2022-11-23T08:09:54.300Z,-2.62
2022-11-23T08:15:20.460Z,-2.62
2022-11-23T08:20:49.156Z,-2.51
2022-11-23T08:26:17.213Z,-2.52
2022-11-23T08:31:48.392Z,-2.43
2022-11-23T08:37:10.930Z,-2.72
2022-11-23T08:49:27.541Z,-2.61
2022-11-23T08:54:49.852Z,-2.66
2022-11-23T09:00:12.692Z,-2.79
2022-11-23T09:05:37.773Z,-2.81
2022-11-23T09:11:03.838Z,-2.61
2022-11-23T09:16:29.601Z,-2.75
2022-11-23T09:21:55.231Z,-2.75
2022-11-23T09:27:17.851Z,-2.93
2022-11-23T09:32:40.332Z,-2.96
2022-11-23T09:38:15.521Z,-2.79
2022-11-23T09:43:44.701Z,-2.78
2022-11-23T09:49:20.951Z,-2.72
2022-11-23T09:54:44.973Z,-3.01
2022-11-23T10:00:20.961Z,-3.02
2022-11-23T10:05:48.130Z,-2.82
2022-11-23T10:11:24.592Z,-3.03
2022-11-23T10:17:04.891Z,-2.85
2022-11-23T10:22:57.901Z,-2.99
2022-11-23T10:28:24.654Z,-3.19
2022-11-23T10:34:04.871Z,-2.97
2022-11-23T10:45:44.992Z,-3.12
2022-11-23T10:51:23.483Z,-3.11
2022-11-23T10:56:56.112Z,-3.22
2022-11-23T11:02:25.483Z,-3.14
2022-11-23T11:08:06.434Z,-3.31
2022-11-23T11:13:51.212Z,-3.23
2022-11-23T11:19:35.582Z,-3.20
2022-11-23T11:25:02.391Z,-3.20
2022-11-23T11:30:29.442Z,-3.44
2022-11-23T11:35:56.692Z,-3.40
2022-11-23T11:41:25.832Z,-3.40
2022-11-23T11:46:58.353Z,-3.32
2022-11-23T11:52:30.589Z,-3.30
2022-11-23T11:58:03.201Z,-3.64
2022-11-23T12:04:08.892Z,-3.65
2022-11-23T12:09:37.042Z,-3.61
2022-11-23T12:14:59.502Z,-3.65
2022-11-23T12:20:54.691Z,-3.66
2022-11-23T12:26:47.315Z,-3.67
2022-11-23T12:32:14.932Z,-3.68
2022-11-23T12:37:51.222Z,-3.79
2022-11-23T12:43:24.679Z,-3.82
2022-11-23T12:49:17.233Z,-3.80
2022-11-23T12:54:48.772Z,-3.93
2022-11-23T13:00:19.521Z,-3.84
2022-11-23T13:06:22.472Z,-3.89
2022-11-23T13:18:43.513Z,-4.06
2022-11-23T13:24:45.133Z,-3.94
2022-11-23T13:30:40.360Z,-3.95
2022-11-23T13:42:16.544Z,-4.03
2022-11-23T13:47:42.528Z,-4.08
2022-11-23T13:53:26.718Z,-4.08
2022-11-23T13:58:55.091Z,-4.27
2022-11-23T14:04:23.130Z,-4.44
2022-11-23T14:09:56.291Z,-4.08
2022-11-23T14:15:21.642Z,-4.31
2022-11-23T14:21:11.792Z,-4.16
2022-11-23T14:27:23.750Z,-4.19
2022-11-23T14:33:14.131Z,-4.21
2022-11-23T14:39:15.163Z,-4.29
2022-11-23T14:44:42.594Z,-4.50
2022-11-23T14:50:26.312Z,-4.40
2022-11-23T14:55:51.553Z,-4.36
2022-11-23T15:01:24.494Z,-4.51
2022-11-23T15:06:54.311Z,-4.59
2022-11-23T15:12:42.061Z,-4.48
2022-11-23T15:18:08.833Z,-4.60
2022-11-23T15:24:03.921Z,-4.64
2022-11-23T15:29:39.837Z,-4.44
2022-11-23T15:35:10.471Z,-4.66
2022-11-23T15:40:36.943Z,-4.57
2022-11-23T15:46:05.667Z,-4.56
2022-11-23T15:51:37.419Z,-4.62
2022-11-23T15:56:59.820Z,-4.77
2022-11-23T16:02:25.170Z,-4.62
2022-11-23T16:08:07.811Z,-4.78
2022-11-23T16:13:38.553Z,-4.63
2022-11-23T16:19:00.682Z,-4.83
2022-11-23T16:24:25.012Z,-4.88
2022-11-23T16:29:50.773Z,-4.80
2022-11-23T16:35:18.469Z,-4.63
2022-11-23T16:40:45.554Z,-4.83
2022-11-23T16:46:14.529Z,-4.74
2022-11-23T16:51:41.120Z,-4.76
2022-11-23T16:57:09.833Z,-4.91
2022-11-23T17:02:34.650Z,-4.78
2022-11-23T17:07:59.994Z,-4.93
2022-11-23T17:13:29.324Z,-4.79
2022-11-23T17:18:54.055Z,-4.87
2022-11-23T17:24:22.651Z,-5.04
2022-11-23T17:29:46.693Z,-5.13
2022-11-23T17:35:09.111Z,-5.14
2022-11-23T17:40:31.620Z,-4.96
2022-11-23T17:45:54.148Z,-5.01
2022-11-23T17:51:16.601Z,-5.26
2022-11-23T17:56:41.511Z,-5.28
2022-11-23T18:02:03.753Z,-5.16
2022-11-23T18:07:25.680Z,-5.19
2022-11-23T18:12:48.176Z,-5.06
2022-11-23T18:18:10.330Z,-5.37
2022-11-23T18:23:32.643Z,-5.18
2022-11-23T18:28:54.674Z,-5.26
2022-11-23T18:34:16.975Z,-5.37
2022-11-23T18:40:16.485Z,-5.36
2022-11-23T19:01:13.971Z,-5.44
2022-11-23T19:06:39.092Z,-5.30
2022-11-23T19:12:01.844Z,-5.50
2022-11-23T19:24:11.779Z,-5.52
2022-11-23T19:35:57.074Z,-5.44
2022-11-23T19:41:30.217Z,-5.55
2022-11-23T19:46:53.421Z,-5.56
2022-11-23T19:52:18.632Z,-5.42
2022-11-23T19:57:41.651Z,-5.50
2022-11-23T20:03:03.754Z,-5.48
2022-11-23T20:08:27.182Z,-5.49
2022-11-23T20:13:49.568Z,-5.49
2022-11-23T20:19:14.733Z,-5.62
2022-11-23T20:24:41.873Z,-5.69
2022-11-23T20:30:15.811Z,-5.56
2022-11-23T20:35:38.272Z,-5.79
2022-11-23T20:41:25.351Z,-5.73
2022-11-23T20:47:04.621Z,-5.62
2022-11-23T20:52:28.052Z,-5.57
2022-11-23T20:57:52.332Z,-5.76
2022-11-23T21:03:20.635Z,-5.57
2022-11-23T21:08:44.866Z,-5.70
2022-11-23T21:14:17.516Z,-5.68
2022-11-23T21:19:41.460Z,-5.69
2022-11-23T21:25:11.832Z,-5.78
2022-11-23T21:30:40.040Z,-5.67
2022-11-23T21:36:06.412Z,-5.80
2022-11-23T21:41:28.531Z,-5.77
2022-11-23T21:46:51.052Z,-5.74
2022-11-23T21:52:13.350Z,-5.94
2022-11-23T21:57:36.442Z,-5.97
2022-11-23T22:02:58.841Z,-5.99
2022-11-23T22:08:29.554Z,-5.90
2022-11-23T22:14:00.833Z,-5.81
2022-11-23T22:19:23.300Z,-6.10
2022-11-23T22:24:45.141Z,-6.03
2022-11-23T22:30:08.221Z,-5.90
2022-11-23T22:35:32.730Z,-5.85
2022-11-23T23:40:44.444Z,-6.37
2022-11-23T23:46:09.454Z,-6.35
2022-11-23T23:51:31.600Z,-6.53
2022-11-23T23:56:53.441Z,-6.33
